Time;durP1;ratioP1;P1;durP2;ratioP2;P2;SDS_P1;SDS_P2;PMS_P1;PMS_P2;Temp;Humidity;BMP_temperature;BMP_pressure;BME280_temperature;BME280_humidity;BME280_pressure;Samples;Min_cycle;Max_cycle;Signal;HPM_P1;HPM_P2
2024/02/02 00:00:18;;;;;;;1.83;1.07;;;4.20;99.90;;;;;;5094732;28;20526;-80
2024/02/02 00:02:46;;;;;;;2.53;0.60;;;4.20;99.90;;;;;;5094977;28;20505;-80
2024/02/02 00:05:13;;;;;;;2.50;0.90;;;4.30;99.90;;;;;;5094907;28;20455;-80
2024/02/02 00:07:40;;;;;;;0.40;0.40;;;4.30;99.90;;;;;;5094387;28;20498;-80
2024/02/02 00:10:07;;;;;;;1.13;0.70;;;4.30;99.90;;;;;;5094449;28;20436;-80
2024/02/02 00:12:35;;;;;;;0.80;0.67;;;4.30;99.90;;;;;;5094693;28;20460;-80
2024/02/02 00:15:02;;;;;;;2.10;0.70;;;4.30;99.90;;;;;;5094368;28;20960;-80
2024/02/02 00:17:30;;;;;;;1.80;0.80;;;4.30;99.90;;;;;;5094604;28;20448;-80
2024/02/02 00:19:58;;;;;;;1.07;0.80;;;4.30;99.90;;;;;;5094309;28;20986;-80
2024/02/02 00:22:25;;;;;;;3.17;1.43;;;4.30;99.90;;;;;;5094500;28;20468;-80
2024/02/02 00:24:52;;;;;;;1.57;0.70;;;4.20;99.90;;;;;;5094259;28;20479;-80
2024/02/02 00:27:19;;;;;;;3.90;0.87;;;4.20;99.90;;;;;;5094250;28;20767;-80
2024/02/02 00:29:46;;;;;;;1.73;1.00;;;4.30;99.90;;;;;;5094431;28;20854;-80
2024/02/02 00:32:13;;;;;;;1.40;0.77;;;4.30;99.90;;;;;;5094295;28;20464;-80
2024/02/02 00:34:39;;;;;;;0.60;0.50;;;4.30;99.90;;;;;;5093971;28;20957;-80
2024/02/02 00:37:07;;;;;;;0.70;0.70;;;4.30;99.90;;;;;;5094160;28;20439;-80
2024/02/02 00:39:34;;;;;;;2.70;0.43;;;4.30;99.90;;;;;;5094179;28;20202;-80
2024/02/02 00:42:01;;;;;;;0.60;0.60;;;4.30;99.90;;;;;;5093803;28;20464;-80
2024/02/02 00:44:28;;;;;;;0.40;0.30;;;4.30;99.90;;;;;;5094219;28;20472;-80
2024/02/02 00:46:54;;;;;;;0.40;0.40;;;4.30;99.90;;;;;;5095704;28;20436;-80
2024/02/02 00:49:23;;;;;;;0.93;0.50;;;4.20;99.90;;;;;;5095307;28;20455;-80
2024/02/02 00:51:50;;;;;;;0.40;0.40;;;4.20;99.90;;;;;;5094582;28;20464;-80
2024/02/02 00:54:18;;;;;;;0.80;0.70;;;4.20;99.90;;;;;;5094159;28;20513;-80
2024/02/02 00:56:45;;;;;;;0.50;0.50;;;4.20;99.90;;;;;;5093910;28;20452;-80
2024/02/02 00:59:12;;;;;;;0.80;0.53;;;4.20;99.90;;;;;;5093573;28;20949;-80
2024/02/02 01:01:38;;;;;;;1.73;1.13;;;4.20;99.90;;;;;;5094096;28;20471;-79
2024/02/02 01:04:05;;;;;;;0.40;0.40;;;4.20;99.90;;;;;;5094503;28;20480;-79
2024/02/02 01:06:32;;;;;;;0.40;0.40;;;4.20;99.90;;;;;;5093696;28;20790;-79
2024/02/02 01:08:58;;;;;;;0.97;0.50;;;4.20;99.90;;;;;;5093389;28;20550;-79
2024/02/02 01:11:26;;;;;;;0.73;0.40;;;4.30;99.90;;;;;;5093648;28;20455;-79
2024/02/02 01:13:53;;;;;;;1.60;1.50;;;4.30;99.90;;;;;;5093730;28;20444;-79
2024/02/02 01:16:20;;;;;;;0.80;0.70;;;4.30;99.90;;;;;;5093685;28;20436;-79
2024/02/02 01:18:47;;;;;;;1.27;0.80;;;4.30;99.90;;;;;;5093546;28;20451;-79
2024/02/02 01:21:13;;;;;;;1.43;0.83;;;4.30;99.90;;;;;;5093523;28;20611;-79
2024/02/02 01:23:40;;;;;;;0.97;0.73;;;4.40;99.90;;;;;;5093520;28;20478;-79
2024/02/02 01:26:07;;;;;;;1.07;0.90;;;4.40;99.90;;;;;;5093261;28;20535;-79
2024/02/02 01:28:35;;;;;;;1.63;0.40;;;4.30;99.90;;;;;;5093596;28;20439;-79
2024/02/02 01:31:02;;;;;;;0.40;0.30;;;4.30;99.90;;;;;;5093405;28;20464;-79
2024/02/02 01:33:28;;;;;;;0.90;0.90;;;4.30;99.90;;;;;;5093446;28;20432;-79
2024/02/02 01:35:55;;;;;;;1.07;0.50;;;4.30;99.90;;;;;;5093442;28;20455;-79
2024/02/02 01:38:22;;;;;;;0.60;0.60;;;4.30;99.90;;;;;;5096249;28;20834;-79
2024/02/02 01:40:49;;;;;;;0.37;0.30;;;4.20;99.90;;;;;;5098486;28;20496;-80
2024/02/02 01:43:16;;;;;;;0.50;0.40;;;4.10;99.90;;;;;;5097702;28;20440;-80
2024/02/02 01:45:44;;;;;;;0.40;0.30;;;4.10;99.90;;;;;;5097582;28;20812;-80
2024/02/02 01:48:10;;;;;;;2.33;0.47;;;4.10;99.90;;;;;;5097498;28;20471;-80
2024/02/02 01:50:37;;;;;;;0.40;0.40;;;4.10;99.90;;;;;;5097111;28;20471;-80
2024/02/02 01:53:04;;;;;;;0.40;0.40;;;4.10;99.90;;;;;;5097095;28;20436;-80
2024/02/02 01:55:31;;;;;;;0.40;0.30;;;4.10;99.90;;;;;;5097373;28;20439;-79
2024/02/02 01:57:58;;;;;;;3.30;0.60;;;4.00;99.90;;;;;;5097127;28;20960;-79
2024/02/02 02:00:25;;;;;;;0.50;0.47;;;4.00;99.90;;;;;;5097165;28;20444;-79
2024/02/02 02:02:53;;;;;;;0.57;0.57;;;4.00;99.90;;;;;;5097165;28;20435;-79
2024/02/02 02:05:20;;;;;;;0.63;0.63;;;4.10;99.90;;;;;;5096951;28;20988;-79
2024/02/02 02:07:47;;;;;;;1.13;0.53;;;4.10;99.90;;;;;;5096884;28;20482;-79
2024/02/02 02:10:14;;;;;;;0.70;0.70;;;4.20;99.90;;;;;;5096981;28;20466;-79
2024/02/02 02:12:40;;;;;;;2.93;0.80;;;4.30;99.90;;;;;;5097048;28;20436;-79
2024/02/02 02:15:09;;;;;;;0.70;0.70;;;4.30;99.90;;;;;;5096884;28;20440;-79
2024/02/02 02:17:36;;;;;;;0.30;0.30;;;4.30;99.90;;;;;;5096967;28;20443;-79
2024/02/02 02:20:10;;;;;;;0.80;0.80;;;5.90;99.90;;;;;;5098030;28;20782;-80
2024/02/02 02:22:38;;;;;;;1.47;0.60;;;4.30;99.90;;;;;;5096948;28;20517;-80
2024/02/02 02:25:06;;;;;;;0.40;0.40;;;4.20;99.90;;;;;;5096547;28;20532;-80
2024/02/02 02:27:33;;;;;;;0.57;0.57;;;4.20;99.90;;;;;;5096740;28;20451;-80
2024/02/02 02:30:01;;;;;;;0.43;0.43;;;4.30;99.90;;;;;;5096701;28;20448;-80
2024/02/02 02:32:28;;;;;;;0.67;0.50;;;4.30;99.90;;;;;;5096890;28;20460;-80
2024/02/02 02:34:55;;;;;;;0.70;0.50;;;4.40;99.90;;;;;;5097134;28;20451;-80
2024/02/02 02:37:22;;;;;;;0.77;0.60;;;4.30;99.90;;;;;;5096676;28;20847;-79
2024/02/02 02:39:50;;;;;;;0.60;0.60;;;4.30;99.90;;;;;;5096540;28;20439;-80
2024/02/02 02:42:16;;;;;;;0.67;0.67;;;4.30;99.90;;;;;;5096415;28;20479;-80
2024/02/02 02:44:43;;;;;;;0.30;0.30;;;4.30;99.90;;;;;;5096290;28;20484;-80
2024/02/02 02:47:11;;;;;;;0.50;0.50;;;4.30;99.90;;;;;;5096784;28;20492;-80
2024/02/02 02:49:38;;;;;;;0.47;0.47;;;4.30;99.90;;;;;;5095416;28;20448;-80
2024/02/02 02:52:05;;;;;;;1.00;0.70;;;4.20;99.90;;;;;;5096168;28;20467;-80
2024/02/02 02:54:32;;;;;;;1.03;0.40;;;4.20;99.90;;;;;;5096328;28;20444;-80
2024/02/02 02:57:01;;;;;;;1.30;0.60;;;4.30;99.90;;;;;;5096306;28;20527;-80
2024/02/02 02:59:28;;;;;;;0.57;0.57;;;4.30;99.90;;;;;;5096124;28;20476;-80
2024/02/02 03:01:55;;;;;;;2.23;0.80;;;4.30;99.90;;;;;;5095948;28;20468;-80
2024/02/02 03:04:22;;;;;;;0.70;0.57;;;4.40;99.90;;;;;;5095993;28;20487;-80
2024/02/02 03:06:49;;;;;;;0.80;0.80;;;4.40;99.90;;;;;;5095885;28;20826;-80
2024/02/02 03:09:15;;;;;;;0.40;0.40;;;4.40;99.90;;;;;;5095931;28;20448;-80
2024/02/02 03:11:42;;;;;;;5.10;1.23;;;4.50;99.90;;;;;;5099859;28;20460;-80
2024/02/02 03:14:10;;;;;;;6.33;0.40;;;4.50;99.90;;;;;;5095834;28;20440;-80
2024/02/02 03:16:37;;;;;;;3.07;0.67;;;4.40;99.90;;;;;;5095785;28;20459;-80
2024/02/02 03:19:04;;;;;;;3.80;1.10;;;4.30;99.90;;;;;;5095747;28;20511;-80
2024/02/02 03:21:30;;;;;;;0.50;0.50;;;4.30;99.90;;;;;;5095882;28;20456;-80
2024/02/02 03:23:57;;;;;;;1.03;0.50;;;4.30;99.90;;;;;;5095191;28;20455;-80
2024/02/02 03:26:24;;;;;;;1.23;0.63;;;4.30;99.90;;;;;;5095570;28;20802;-80
2024/02/02 03:28:50;;;;;;;3.93;0.90;;;4.30;99.90;;;;;;5095573;28;20452;-80
2024/02/02 03:31:18;;;;;;;1.90;1.10;;;4.40;99.90;;;;;;5095441;28;20471;-79
2024/02/02 03:33:45;;;;;;;0.70;0.70;;;4.40;99.90;;;;;;5096898;28;20451;-80
2024/02/02 03:36:12;;;;;;;4.10;1.10;;;4.50;99.90;;;;;;5096081;28;20444;-80
2024/02/02 03:38:38;;;;;;;0.70;0.70;;;4.60;99.90;;;;;;5096162;28;20447;-80
2024/02/02 03:41:05;;;;;;;0.60;0.60;;;4.60;99.90;;;;;;5095981;28;20490;-80
2024/02/02 03:43:32;;;;;;;0.70;0.57;;;4.60;99.90;;;;;;5096149;28;20470;-80
2024/02/02 03:45:58;;;;;;;2.20;1.63;;;4.60;99.90;;;;;;5095680;28;20478;-80
2024/02/02 03:48:26;;;;;;;0.80;0.50;;;4.60;99.90;;;;;;5095506;28;20444;-80
2024/02/02 03:50:53;;;;;;;0.60;0.60;;;4.50;99.90;;;;;;5095459;28;20464;-80
2024/02/02 03:53:20;;;;;;;2.10;1.00;;;4.60;99.90;;;;;;5095071;28;20436;-80
2024/02/02 03:55:46;;;;;;;1.57;1.47;;;4.70;99.90;;;;;;5095173;28;20444;-80
2024/02/02 03:58:13;;;;;;;0.60;0.60;;;4.70;99.90;;;;;;5095036;28;20447;-80
2024/02/02 04:00:40;;;;;;;0.80;0.80;;;4.70;99.90;;;;;;5094726;28;20464;-80
2024/02/02 04:03:08;;;;;;;0.80;0.60;;;4.70;99.90;;;;;;5094926;28;20448;-80
2024/02/02 04:05:36;;;;;;;0.40;0.40;;;4.80;99.90;;;;;;5094898;28;20509;-80
2024/02/02 04:08:02;;;;;;;5.63;0.93;;;4.80;99.90;;;;;;5094466;28;20476;-80
2024/02/02 04:10:29;;;;;;;6.50;1.60;;;4.80;99.90;;;;;;5094730;28;20444;-80
2024/02/02 04:12:57;;;;;;;5.90;1.27;;;4.90;99.90;;;;;;5094439;28;20435;-80
2024/02/02 04:15:24;;;;;;;1.30;0.60;;;4.90;99.90;;;;;;5094740;28;20489;-79
2024/02/02 04:17:51;;;;;;;0.97;0.77;;;4.90;99.90;;;;;;5094770;28;20427;-80
2024/02/02 04:20:17;;;;;;;2.30;1.00;;;4.90;99.90;;;;;;5094752;28;20463;-80
2024/02/02 04:22:45;;;;;;;1.43;1.20;;;5.00;99.90;;;;;;5094196;28;20444;-80
2024/02/02 04:25:12;;;;;;;1.13;1.00;;;4.90;99.90;;;;;;5094434;28;20499;-80
2024/02/02 04:27:39;;;;;;;0.70;0.43;;;5.00;99.90;;;;;;5094472;28;20885;-80
2024/02/02 04:30:07;;;;;;;1.60;0.70;;;5.00;99.90;;;;;;5094330;28;20844;-80
2024/02/02 04:32:33;;;;;;;2.50;0.70;;;5.00;99.90;;;;;;5094322;28;20468;-80
2024/02/02 04:35:00;;;;;;;0.50;0.50;;;5.10;99.90;;;;;;5094302;28;20440;-80
2024/02/02 04:37:27;;;;;;;1.23;0.80;;;5.10;99.90;;;;;;5094252;28;20440;-80
2024/02/02 04:39:55;;;;;;;0.60;0.60;;;5.10;99.90;;;;;;5093964;28;20944;-80
2024/02/02 04:42:21;;;;;;;2.80;1.17;;;5.10;99.90;;;;;;5094070;28;20482;-80
2024/02/02 04:44:48;;;;;;;0.77;0.73;;;5.10;99.90;;;;;;5094738;28;20476;-80
2024/02/02 04:47:15;;;;;;;1.57;0.63;;;5.10;99.90;;;;;;5094089;28;20443;-80
2024/02/02 04:49:41;;;;;;;0.73;0.73;;;5.20;99.90;;;;;;5093784;28;20941;-80
2024/02/02 04:52:08;;;;;;;1.10;0.60;;;5.20;99.90;;;;;;5093887;28;20468;-80
2024/02/02 04:54:35;;;;;;;1.40;1.23;;;5.20;99.90;;;;;;5094004;28;20443;-80
2024/02/02 04:57:03;;;;;;;0.50;0.40;;;5.20;99.90;;;;;;5093980;28;20819;-80
2024/02/02 04:59:30;;;;;;;1.43;1.33;;;5.20;99.90;;;;;;5093848;28;20448;-80
2024/02/02 05:01:57;;;;;;;7.57;0.77;;;5.20;99.90;;;;;;5093769;28;20529;-80
2024/02/02 05:04:23;;;;;;;0.83;0.80;;;5.20;99.90;;;;;;5093390;28;20488;-80
2024/02/02 05:06:50;;;;;;;0.50;0.50;;;5.20;99.90;;;;;;5093321;28;20937;-80
2024/02/02 05:09:17;;;;;;;1.83;0.80;;;5.20;99.90;;;;;;5093771;28;20452;-80
2024/02/02 05:11:43;;;;;;;0.83;0.70;;;5.20;99.90;;;;;;5093126;28;20471;-80
2024/02/02 05:14:11;;;;;;;3.53;1.23;;;5.20;99.90;;;;;;5093781;28;20436;-80
2024/02/02 05:16:38;;;;;;;3.47;1.53;;;5.30;99.90;;;;;;5093719;28;20440;-80
2024/02/02 05:19:05;;;;;;;0.60;0.60;;;5.30;99.90;;;;;;5093330;28;20962;-80
2024/02/02 05:21:32;;;;;;;0.60;0.60;;;5.30;99.90;;;;;;5099556;28;20573;-80
2024/02/02 05:23:58;;;;;;;2.80;0.90;;;5.30;99.90;;;;;;5096905;28;20451;-80
2024/02/02 05:26:25;;;;;;;3.73;1.00;;;5.30;99.90;;;;;;5095012;28;20478;-80
2024/02/02 05:28:52;;;;;;;0.90;0.90;;;5.30;99.90;;;;;;5093345;28;20972;-80
2024/02/02 05:31:20;;;;;;;1.30;0.83;;;5.40;99.90;;;;;;5094586;28;20464;-80
2024/02/02 05:33:46;;;;;;;1.53;0.90;;;5.40;99.90;;;;;;5093587;28;20451;-80
2024/02/02 05:36:13;;;;;;;0.70;0.50;;;5.40;99.90;;;;;;5093339;28;20436;-80
2024/02/02 05:38:40;;;;;;;2.23;1.37;;;5.40;99.90;;;;;;5093417;28;20933;-80
2024/02/02 05:41:07;;;;;;;0.43;0.43;;;5.40;99.90;;;;;;5093523;28;20890;-80
2024/02/02 05:43:34;;;;;;;2.60;1.17;;;5.40;99.90;;;;;;5093565;28;20483;-80
2024/02/02 05:46:00;;;;;;;2.10;0.97;;;5.50;99.90;;;;;;5093316;28;20537;-80
2024/02/02 05:48:28;;;;;;;0.90;0.53;;;5.50;99.90;;;;;;5095734;28;20440;-80
2024/02/02 05:50:55;;;;;;;2.70;1.47;;;5.40;99.90;;;;;;5093483;28;20464;-80
2024/02/02 05:53:22;;;;;;;0.40;0.30;;;5.50;99.90;;;;;;5095405;28;20514;-80
2024/02/02 05:55:48;;;;;;;0.80;0.80;;;5.50;99.90;;;;;;5093629;28;20444;-80
2024/02/02 05:58:15;;;;;;;1.53;0.90;;;5.40;99.90;;;;;;5093083;28;20456;-80
2024/02/02 06:00:42;;;;;;;4.20;0.80;;;5.40;99.90;;;;;;5093229;28;20460;-80
2024/02/02 06:03:08;;;;;;;1.03;0.80;;;5.50;99.90;;;;;;5093352;28;20447;-80
2024/02/02 06:05:36;;;;;;;2.30;0.60;;;5.40;99.90;;;;;;5093164;28;20841;-80
2024/02/02 06:08:06;;;;;;;1.00;0.90;;;5.40;99.90;;;;;;5092787;28;20476;-80
2024/02/02 06:10:33;;;;;;;1.13;0.60;;;5.40;99.90;;;;;;5093189;28;20811;-80
2024/02/02 06:12:59;;;;;;;0.97;0.80;;;5.40;99.90;;;;;;5093016;28;20443;-80
2024/02/02 06:15:26;;;;;;;1.43;0.90;;;5.40;99.90;;;;;;5093461;28;20448;-80
2024/02/02 06:17:53;;;;;;;1.27;0.93;;;5.40;99.90;;;;;;5093375;28;20444;-80
2024/02/02 06:20:19;;;;;;;2.27;0.90;;;5.40;99.90;;;;;;5094139;28;20447;-80
2024/02/02 06:22:47;;;;;;;4.63;0.73;;;5.40;99.90;;;;;;5094815;28;20447;-80
2024/02/02 06:25:14;;;;;;;1.03;0.77;;;5.40;99.90;;;;;;5099706;28;20480;-80
2024/02/02 06:27:41;;;;;;;0.80;0.80;;;5.50;99.90;;;;;;5098566;28;20448;-79
2024/02/02 06:30:08;;;;;;;2.40;1.10;;;5.40;99.90;;;;;;5099569;28;20443;-80
2024/02/02 06:32:36;;;;;;;1.07;0.87;;;5.50;99.90;;;;;;5098630;28;20460;-80
2024/02/02 06:35:03;;;;;;;0.90;0.90;;;5.50;99.90;;;;;;5098853;28;20466;-80
2024/02/02 06:37:30;;;;;;;3.80;1.13;;;5.50;99.90;;;;;;5098374;28;20448;-80
2024/02/02 06:40:03;;;;;;;1.63;1.40;;;5.50;99.90;;;;;;5097363;28;20451;-79
2024/02/02 06:42:30;;;;;;;2.23;1.00;;;5.50;99.90;;;;;;5096893;28;20464;-80
2024/02/02 06:44:57;;;;;;;3.70;1.10;;;5.50;99.90;;;;;;5097254;28;20424;-80
2024/02/02 06:47:24;;;;;;;1.57;0.83;;;5.50;99.90;;;;;;5096975;28;20444;-80
2024/02/02 06:49:51;;;;;;;1.57;0.80;;;5.60;99.90;;;;;;5096628;28;20440;-80
2024/02/02 06:52:18;;;;;;;1.97;1.17;;;5.60;99.90;;;;;;5096409;28;20512;-80
2024/02/02 06:54:44;;;;;;;1.87;0.60;;;5.60;99.90;;;;;;5096605;28;20436;-80
2024/02/02 06:57:12;;;;;;;1.60;0.60;;;5.50;99.90;;;;;;5096712;28;20456;-80
2024/02/02 06:59:39;;;;;;;3.07;2.10;;;5.60;99.90;;;;;;5096959;28;20452;-80
2024/02/02 07:02:18;;;;;;;1.40;1.13;;;5.60;99.90;;;;;;5096732;28;20452;-80
2024/02/02 07:04:45;;;;;;;1.70;0.97;;;5.60;99.90;;;;;;5095943;28;20917;-80
2024/02/02 07:07:12;;;;;;;1.83;1.17;;;5.60;99.90;;;;;;5098577;28;20488;-80
2024/02/02 07:09:39;;;;;;;1.20;1.00;;;5.50;99.90;;;;;;5103341;28;20424;-80
2024/02/02 07:12:09;;;;;;;0.77;0.70;;;5.50;99.90;;;;;;5102019;28;20468;-80
2024/02/02 07:15:15;;;;;;;0.97;0.97;;;5.50;99.90;;;;;;5098369;28;20448;-80
2024/02/02 07:17:42;;;;;;;1.60;0.90;;;5.50;99.90;;;;;;5107683;28;20429;-80
2024/02/02 07:20:19;;;;;;;0.60;0.60;;;5.40;99.90;;;;;;5096544;28;20825;-80
2024/02/02 07:22:46;;;;;;;1.40;1.03;;;7.70;99.90;;;;;;5096095;28;20434;-80
2024/02/02 07:25:14;;;;;;;4.03;1.63;;;5.50;99.90;;;;;;5095857;28;20447;-80
2024/02/02 07:27:53;;;;;;;1.77;1.67;;;5.50;99.90;;;;;;5097556;28;20436;-80
2024/02/02 07:30:54;;;;;;;1.03;1.00;;;5.50;99.90;;;;;;5095371;28;20947;-80
2024/02/02 07:33:26;;;;;;;3.17;1.23;;;5.50;99.90;;;;;;5080264;28;20452;-80
2024/02/02 07:35:57;;;;;;;1.47;1.20;;;5.50;99.90;;;;;;5095364;28;20531;-79
2024/02/02 07:38:48;;;;;;;1.90;1.67;;;5.50;99.90;;;;;;5095574;28;20432;-79
2024/02/02 07:41:17;;;;;;;0.80;0.80;;;5.60;99.90;;;;;;5096303;28;20474;-79
2024/02/02 07:43:44;;;;;;;7.77;1.70;;;5.60;99.90;;;;;;5095678;28;20436;-79
2024/02/02 07:46:12;;;;;;;0.77;0.77;;;5.60;99.90;;;;;;5095309;28;20476;-79
2024/02/02 07:48:40;;;;;;;1.23;1.03;;;5.60;99.90;;;;;;5096037;28;20444;-79
2024/02/02 07:51:07;;;;;;;0.80;0.80;;;5.70;99.90;;;;;;5095503;28;20476;-79
2024/02/02 07:53:34;;;;;;;1.73;1.17;;;5.70;99.90;;;;;;5095489;28;20448;-79
2024/02/02 07:56:01;;;;;;;1.70;1.60;;;5.70;99.90;;;;;;5095452;28;20444;-79
2024/02/02 07:58:28;;;;;;;1.33;0.90;;;5.80;99.90;;;;;;5095601;28;20812;-79
2024/02/02 08:00:55;;;;;;;1.03;1.03;;;5.80;99.90;;;;;;5095228;28;20467;-78
2024/02/02 08:03:23;;;;;;;4.43;1.00;;;5.90;99.90;;;;;;5095074;28;20444;-78
2024/02/02 08:05:49;;;;;;;2.03;1.40;;;5.90;99.90;;;;;;5095044;28;20838;-79
2024/02/02 08:08:16;;;;;;;5.50;1.43;;;6.00;99.90;;;;;;5094599;28;20480;-79
2024/02/02 08:10:43;;;;;;;1.47;1.03;;;6.00;99.90;;;;;;5094822;28;20471;-79
2024/02/02 08:13:10;;;;;;;2.57;1.97;;;6.00;99.90;;;;;;5094981;28;20819;-79
2024/02/02 08:15:38;;;;;;;7.00;1.73;;;6.00;99.90;;;;;;5094993;28;20476;-79
2024/02/02 08:18:05;;;;;;;2.07;1.00;;;6.00;99.90;;;;;;5095532;28;20936;-79
2024/02/02 08:20:33;;;;;;;2.67;1.13;;;6.10;99.90;;;;;;5094607;28;20457;-79
2024/02/02 08:23:00;;;;;;;1.93;1.60;;;6.10;99.90;;;;;;5094830;28;20440;-79
2024/02/02 08:25:27;;;;;;;4.13;1.80;;;6.10;99.90;;;;;;5094574;28;20448;-79
2024/02/02 08:27:53;;;;;;;1.17;1.17;;;6.20;99.90;;;;;;5094522;28;20432;-79
2024/02/02 08:30:23;;;;;;;1.00;0.80;;;6.40;99.90;;;;;;5094694;28;20440;-79
2024/02/02 08:32:51;;;;;;;1.27;1.10;;;6.40;99.90;;;;;;5094798;28;20467;-79
2024/02/02 08:35:22;;;;;;;1.83;0.80;;;6.40;99.90;;;;;;5094859;28;20444;-79
2024/02/02 08:37:51;;;;;;;11.50;0.90;;;6.50;99.90;;;;;;5094920;28;20818;-79
2024/02/02 08:40:36;;;;;;;1.80;0.70;;;6.60;99.90;;;;;;5094298;28;20431;-79
2024/02/02 08:43:03;;;;;;;2.10;1.20;;;6.70;99.90;;;;;;5094405;28;20423;-79
2024/02/02 08:46:07;;;;;;;0.97;0.83;;;6.80;99.90;;;;;;5094668;28;20444;-79
2024/02/02 08:48:39;;;;;;;0.97;0.80;;;6.80;99.90;;;;;;5093974;28;20432;-79
2024/02/02 08:51:45;;;;;;;0.83;0.83;;;6.80;99.90;;;;;;5094429;28;20467;-78
2024/02/02 08:54:33;;;;;;;11.27;0.80;;;6.80;99.90;;;;;;5105086;28;20470;-79
2024/02/02 08:57:34;;;;;;;1.97;0.73;;;6.80;99.90;;;;;;5103781;28;20549;-79
2024/02/02 09:00:05;;;;;;;1.77;0.67;;;6.80;99.90;;;;;;5094527;28;20471;-78
2024/02/02 09:02:58;;;;;;;1.87;0.77;;;6.80;99.90;;;;;;5094349;28;20496;-79
2024/02/02 09:05:27;;;;;;;4.10;1.20;;;6.90;99.90;;;;;;5085787;28;20440;-79
2024/02/02 09:08:10;;;;;;;3.57;1.00;;;7.00;99.90;;;;;;5093907;28;20537;-79
2024/02/02 09:11:14;;;;;;;1.27;1.00;;;7.10;99.90;;;;;;5094105;28;20456;-79
2024/02/02 09:13:43;;;;;;;0.70;0.60;;;7.20;99.90;;;;;;5094671;28;20427;-79
2024/02/02 09:16:13;;;;;;;1.50;0.97;;;7.20;99.90;;;;;;5095573;28;20444;-79
2024/02/02 09:18:43;;;;;;;5.60;1.10;;;7.30;99.90;;;;;;5094587;28;20448;-79
2024/02/02 09:21:10;;;;;;;0.70;0.70;;;7.40;99.90;;;;;;5094642;28;20551;-79
2024/02/02 09:23:39;;;;;;;1.00;0.90;;;7.50;99.90;;;;;;5094617;28;20829;-79
2024/02/02 09:26:11;;;;;;;1.23;1.13;;;7.50;99.90;;;;;;5093761;28;21008;-79
2024/02/02 09:28:41;;;;;;;2.03;0.93;;;7.50;99.90;;;;;;5094099;28;20424;-79
2024/02/02 09:31:12;;;;;;;1.10;1.00;;;7.50;99.90;;;;;;5094225;28;20448;-79
2024/02/02 09:33:46;;;;;;;1.00;1.00;;;7.50;99.90;;;;;;5094528;28;20435;-79
2024/02/02 09:36:13;;;;;;;1.53;1.10;;;7.40;99.90;;;;;;5095159;28;20478;-79
2024/02/02 09:38:40;;;;;;;0.93;0.90;;;7.50;99.90;;;;;;5095603;28;20455;-81
2024/02/02 09:41:32;;;;;;;1.30;0.90;;;7.50;99.90;;;;;;5094576;28;20984;-80
2024/02/02 09:44:08;;;;;;;1.30;0.80;;;7.50;99.90;;;;;;5095001;28;20428;-80
2024/02/02 09:46:44;;;;;;;2.67;0.73;;;7.60;99.90;;;;;;5094649;28;20476;-80
2024/02/02 09:49:22;;;;;;;1.57;1.00;;;7.60;99.90;;;;;;5097275;28;20427;-80
2024/02/02 09:51:59;;;;;;;1.40;1.20;;;7.60;99.90;;;;;;5096077;28;20495;-80
2024/02/02 09:54:34;;;;;;;1.63;0.87;;;7.70;99.90;;;;;;5096301;28;20409;-80
2024/02/02 09:57:13;;;;;;;4.03;1.13;;;7.80;99.90;;;;;;5095453;28;20428;-80
2024/02/02 09:59:55;;;;;;;1.00;0.90;;;7.90;99.90;;;;;;5099380;28;20438;-80
2024/02/02 10:02:42;;;;;;;0.60;0.60;;;7.90;99.90;;;;;;5099464;28;21003;-80
2024/02/02 10:05:19;;;;;;;1.27;1.10;;;7.90;99.90;;;;;;5099288;28;20428;-80
2024/02/02 10:07:58;;;;;;;1.13;1.07;;;7.90;99.90;;;;;;5099547;28;20483;-80
2024/02/02 10:10:43;;;;;;;2.77;1.10;;;7.90;99.90;;;;;;5100592;28;20889;-80
2024/02/02 10:13:21;;;;;;;1.63;0.87;;;7.80;99.90;;;;;;5101047;28;20432;-80
2024/02/02 10:16:10;;;;;;;1.30;0.80;;;7.90;99.90;;;;;;5109258;28;20424;-80
2024/02/02 10:19:22;;;;;;;1.03;1.03;;;7.90;99.90;;;;;;5118729;28;20864;-80
2024/02/02 10:22:01;;;;;;;0.70;0.60;;;8.00;99.90;;;;;;5079611;28;20460;-80
2024/02/02 10:24:47;;;;;;;2.80;0.70;;;8.10;99.90;;;;;;5110440;28;20495;-80
2024/02/02 10:27:31;;;;;;;1.07;0.70;;;8.10;99.90;;;;;;5105194;28;20456;-80
2024/02/02 10:30:10;;;;;;;1.03;0.70;;;8.20;99.90;;;;;;5099884;28;20770;-80
2024/02/02 10:33:05;;;;;;;0.70;0.57;;;8.10;99.90;;;;;;5101953;28;20416;-81
2024/02/02 10:35:39;;;;;;;1.57;0.80;;;8.10;99.90;;;;;;5100469;28;20440;-80
2024/02/02 10:38:20;;;;;;;0.70;0.70;;;8.30;99.90;;;;;;5110881;28;20436;-80
2024/02/02 10:40:57;;;;;;;1.20;0.57;;;8.70;99.90;;;;;;5112127;28;20468;-80
2024/02/02 10:43:35;;;;;;;1.73;0.80;;;8.90;99.90;;;;;;5105077;28;20788;-81
2024/02/02 10:46:14;;;;;;;0.80;0.70;;;9.10;99.90;;;;;;5102533;28;20424;-80
2024/02/02 10:49:07;;;;;;;1.00;0.87;;;9.30;99.90;;;;;;5103087;28;20428;-82
2024/02/02 10:51:40;;;;;;;1.10;0.60;;;9.70;99.90;;;;;;5103197;28;20975;-79
2024/02/02 10:54:20;;;;;;;2.30;1.10;;;10.00;99.90;;;;;;5101800;28;20416;-81
2024/02/02 10:57:00;;;;;;;0.60;0.50;;;10.30;99.90;;;;;;5101790;28;20423;-80
2024/02/02 10:59:34;;;;;;;4.00;0.67;;;10.50;99.90;;;;;;5100320;28;20958;-80
2024/02/02 11:02:14;;;;;;;1.03;0.83;;;10.80;99.90;;;;;;5102153;28;20462;-82
2024/02/02 11:04:50;;;;;;;0.97;0.67;;;11.00;99.90;;;;;;5102655;28;20432;-81
2024/02/02 11:07:27;;;;;;;1.00;0.70;;;11.10;99.90;;;;;;5100893;28;20483;-81
2024/02/02 11:09:58;;;;;;;4.30;1.07;;;10.90;99.90;;;;;;5107047;28;20428;-82
2024/02/02 11:12:47;;;;;;;1.40;0.90;;;10.60;99.90;;;;;;5103268;28;20456;-81
2024/02/02 11:15:26;;;;;;;3.23;0.67;;;10.40;99.90;;;;;;5102007;28;20417;-79
2024/02/02 11:18:08;;;;;;;0.90;0.60;;;10.00;99.90;;;;;;5101831;28;20420;-81
2024/02/02 11:20:49;;;;;;;0.50;0.50;;;9.90;99.90;;;;;;5101126;28;20470;-82
2024/02/02 11:23:22;;;;;;;1.20;0.57;;;9.80;99.90;;;;;;5102663;28;20486;-82
2024/02/02 11:25:54;;;;;;;0.70;0.60;;;9.90;99.90;;;;;;5102941;28;20432;-84
2024/02/02 11:28:26;;;;;;;0.70;0.50;;;9.80;99.90;;;;;;5102709;28;20521;-82
2024/02/02 11:31:01;;;;;;;0.80;0.80;;;9.90;99.90;;;;;;5101729;28;20463;-83
2024/02/02 11:33:50;;;;;;;0.53;0.53;;;9.80;99.90;;;;;;5100806;28;20412;-83
2024/02/02 11:36:37;;;;;;;0.50;0.47;;;9.80;99.90;;;;;;5101645;28;20435;-85
2024/02/02 11:39:18;;;;;;;0.70;0.60;;;9.90;99.90;;;;;;5100400;28;20506;-84
2024/02/02 11:41:46;;;;;;;0.93;0.63;;;9.80;99.90;;;;;;5101295;28;20455;-86
2024/02/02 11:44:14;;;;;;;0.70;0.70;;;9.90;99.90;;;;;;5106089;28;20444;-81
2024/02/02 11:46:45;;;;;;;3.53;0.73;;;10.00;99.90;;;;;;5100837;28;20472;-87
2024/02/02 11:49:21;;;;;;;1.10;0.50;;;9.90;99.90;;;;;;5101063;28;20440;-80
2024/02/02 11:51:54;;;;;;;0.80;0.60;;;9.90;99.90;;;;;;5100417;28;20853;-86
2024/02/02 11:54:28;;;;;;;0.50;0.50;;;10.10;99.90;;;;;;5101686;28;20408;-85
2024/02/02 11:56:56;;;;;;;1.73;1.63;;;10.10;99.90;;;;;;5098436;28;20424;-87
2024/02/02 11:59:27;;;;;;;23.83;8.67;;;10.20;99.90;;;;;;5096200;28;20838;-89
2024/02/02 12:02:13;;;;;;;1.63;1.00;;;10.30;99.90;;;;;;5098760;28;20456;-83
2024/02/02 12:04:45;;;;;;;0.43;0.43;;;10.40;99.90;;;;;;5098715;28;20447;-84
2024/02/02 12:07:33;;;;;;;0.90;0.90;;;10.60;99.90;;;;;;5096696;28;20491;-89
2024/02/02 12:10:03;;;;;;;0.40;0.40;;;10.40;99.90;;;;;;5095313;28;20482;-89
2024/02/02 12:12:34;;;;;;;0.80;0.80;;;10.40;99.90;;;;;;5095182;28;20539;-90
2024/02/02 12:15:01;;;;;;;0.60;0.60;;;10.40;99.90;;;;;;5095284;28;20848;-89
2024/02/02 12:17:28;;;;;;;0.50;0.50;;;10.40;99.90;;;;;;5095066;28;20798;-88
2024/02/02 12:19:58;;;;;;;0.70;0.40;;;10.30;99.90;;;;;;5095023;28;20459;-89
2024/02/02 12:22:24;;;;;;;0.40;0.40;;;10.30;99.90;;;;;;5094764;28;20897;-89
2024/02/02 12:24:52;;;;;;;0.43;0.43;;;10.20;99.90;;;;;;5094894;28;20452;-89
2024/02/02 12:27:19;;;;;;;0.73;0.50;;;10.30;99.90;;;;;;5094937;28;20828;-89
2024/02/02 12:29:46;;;;;;;2.20;0.80;;;10.40;99.90;;;;;;5094648;28;20440;-89
2024/02/02 12:32:13;;;;;;;0.40;0.30;;;10.50;99.90;;;;;;5094671;28;20460;-87
2024/02/02 12:34:39;;;;;;;0.70;0.40;;;10.50;99.90;;;;;;5094872;28;20501;-89
2024/02/02 12:37:07;;;;;;;0.50;0.43;;;10.40;99.90;;;;;;5094644;28;20453;-87
2024/02/02 12:39:36;;;;;;;0.87;0.33;;;10.40;99.90;;;;;;5094718;28;20444;-86
2024/02/02 12:42:04;;;;;;;0.70;0.40;;;10.40;99.90;;;;;;5094590;28;20559;-87
2024/02/02 12:44:31;;;;;;;1.10;0.40;;;10.30;99.90;;;;;;5094191;28;20963;-88
2024/02/02 12:46:58;;;;;;;0.40;0.40;;;10.40;99.90;;;;;;5094518;28;20489;-86
2024/02/02 12:49:25;;;;;;;0.50;0.40;;;10.30;99.90;;;;;;5094204;28;21020;-86
2024/02/02 12:51:54;;;;;;;0.70;0.40;;;10.40;99.90;;;;;;5094358;28;20827;-88
2024/02/02 12:54:22;;;;;;;0.40;0.40;;;10.40;99.90;;;;;;5094740;28;20444;-86
2024/02/02 12:56:49;;;;;;;0.40;0.37;;;11.10;99.90;;;;;;5094645;28;20451;-87
2024/02/02 12:59:17;;;;;;;0.63;0.40;;;10.30;99.90;;;;;;5094334;28;20456;-87
2024/02/02 13:01:45;;;;;;;0.53;0.40;;;10.30;99.90;;;;;;5094233;28;20541;-86
2024/02/02 13:04:13;;;;;;;0.50;0.50;;;10.20;99.90;;;;;;5094132;28;20456;-87
2024/02/02 13:06:40;;;;;;;0.43;0.40;;;10.10;99.90;;;;;;5094100;28;20933;-86
2024/02/02 13:09:29;;;;;;;0.40;0.40;;;10.10;99.90;;;;;;5093816;28;20984;-87
2024/02/02 13:11:58;;;;;;;0.90;0.50;;;10.20;99.90;;;;;;5094629;28;20472;-86